sensor_id;sensor_type;location;lat;lon;timestamp;pressure;altitude;pressure_sealevel;temperature;humidity
3960;BME280;1994;48.640;8.894;2023-05-21T00:01:12;95783.88;;;17.30;81.55
3960;BME280;1994;48.640;8.894;2023-05-21T00:03:44;95785.56;;;17.21;81.92
3960;BME280;1994;48.640;8.894;2023-05-21T00:06:11;95785.56;;;17.21;82.54
3960;BME280;1994;48.640;8.894;2023-05-21T00:08:38;95781.06;;;17.08;82.47
3960;BME280;1994;48.640;8.894;2023-05-21T00:11:05;95779.50;;;17.07;82.67
3960;BME280;1994;48.640;8.894;2023-05-21T00:13:31;95766.91;;;17.09;82.98
3960;BME280;1994;48.640;8.894;2023-05-21T00:15:57;95772.13;;;17.09;82.97
3960;BME280;1994;48.640;8.894;2023-05-21T00:18:22;95771.16;;;17.05;83.06
3960;BME280;1994;48.640;8.894;2023-05-21T00:20:50;95776.41;;;17.05;83.57
3960;BME280;1994;48.640;8.894;2023-05-21T00:23:16;95772.13;;;17.09;83.19
3960;BME280;1994;48.640;8.894;2023-05-21T00:25:44;95774.25;;;17.07;83.21
3960;BME280;1994;48.640;8.894;2023-05-21T00:28:10;95774.25;;;17.07;83.25
3960;BME280;1994;48.640;8.894;2023-05-21T00:30:36;95760.47;;;17.01;83.45
3960;BME280;1994;48.640;8.894;2023-05-21T00:33:01;95764.34;;;17.04;83.39
3960;BME280;1994;48.640;8.894;2023-05-21T00:35:28;95759.19;;;16.99;83.53
3960;BME280;1994;48.640;8.894;2023-05-21T00:37:54;95758.06;;;16.86;84.33
3960;BME280;1994;48.640;8.894;2023-05-21T00:40:20;95753.59;;;16.87;84.37
3960;BME280;1994;48.640;8.894;2023-05-21T00:42:46;95740.03;;;16.85;84.30
3960;BME280;1994;48.640;8.894;2023-05-21T00:45:12;95740.78;;;16.85;84.65
3960;BME280;1994;48.640;8.894;2023-05-21T00:47:42;95751.03;;;16.82;84.62
3960;BME280;1994;48.640;8.894;2023-05-21T00:50:10;95738.59;;;16.74;84.98
3960;BME280;1994;48.640;8.894;2023-05-21T00:52:36;95740.13;;;16.75;85.20
3960;BME280;1994;48.640;8.894;2023-05-21T00:55:07;95743.03;;;16.73;85.35
3960;BME280;1994;48.640;8.894;2023-05-21T00:57:35;95745.38;;;16.75;85.07
3960;BME280;1994;48.640;8.894;2023-05-21T01:00:05;95736.03;;;16.69;85.40
3960;BME280;1994;48.640;8.894;2023-05-21T01:02:35;95746.81;;;16.62;86.29
3960;BME280;1994;48.640;8.894;2023-05-21T01:05:02;95742.94;;;16.60;86.05
3960;BME280;1994;48.640;8.894;2023-05-21T01:07:37;95747.19;;;16.56;86.78
3960;BME280;1994;48.640;8.894;2023-05-21T01:10:05;95743.03;;;16.50;87.20
3960;BME280;1994;48.640;8.894;2023-05-21T01:12:33;95746.72;;;16.49;86.94
3960;BME280;1994;48.640;8.894;2023-05-21T01:15:01;95745.16;;;16.48;86.63
3960;BME280;1994;48.640;8.894;2023-05-21T01:17:29;95733.91;;;16.47;86.85
3960;BME280;1994;48.640;8.894;2023-05-21T01:19:57;95735.72;;;16.52;86.53
3960;BME280;1994;48.640;8.894;2023-05-21T01:22:24;95730.50;;;16.52;86.54
3960;BME280;1994;48.640;8.894;2023-05-21T01:24:52;95736.25;;;16.49;86.72
3960;BME280;1994;48.640;8.894;2023-05-21T01:27:20;95726.59;;;16.49;86.68
3960;BME280;1994;48.640;8.894;2023-05-21T01:29:46;95726.31;;;16.51;86.57
3960;BME280;1994;48.640;8.894;2023-05-21T01:35:32;95725.88;;;16.44;87.29
3960;BME280;1994;48.640;8.894;2023-05-21T01:38:30;95729.47;;;16.48;87.17
3960;BME280;1994;48.640;8.894;2023-05-21T01:41:08;95722.78;;;16.37;87.94
3960;BME280;1994;48.640;8.894;2023-05-21T01:43:38;95721.22;;;16.36;87.77
3960;BME280;1994;48.640;8.894;2023-05-21T01:46:09;95726.47;;;16.36;87.79
3960;BME280;1994;48.640;8.894;2023-05-21T01:48:35;95728.28;;;16.35;87.86
3960;BME280;1994;48.640;8.894;2023-05-21T01:51:04;95726.03;;;16.29;87.89
3960;BME280;1994;48.640;8.894;2023-05-21T01:53:31;95725.00;;;16.25;88.82
3960;BME280;1994;48.640;8.894;2023-05-21T01:55:56;95723.50;;;16.19;88.83
3960;BME280;1994;48.640;8.894;2023-05-21T01:58:24;95720.31;;;16.22;88.26
3960;BME280;1994;48.640;8.894;2023-05-21T02:00:50;95714.66;;;16.15;88.67
3960;BME280;1994;48.640;8.894;2023-05-21T02:03:18;95709.44;;;16.15;88.76
3960;BME280;1994;48.640;8.894;2023-05-21T02:05:44;95712.59;;;16.12;89.34
3960;BME280;1994;48.640;8.894;2023-05-21T02:08:10;95706.88;;;16.10;89.48
3960;BME280;1994;48.640;8.894;2023-05-21T02:10:37;95704.25;;;16.10;89.07
3960;BME280;1994;48.640;8.894;2023-05-21T02:13:03;95707.44;;;16.07;89.25
3960;BME280;1994;48.640;8.894;2023-05-21T02:15:29;95709.53;;;16.05;88.86
3960;BME280;1994;48.640;8.894;2023-05-21T02:17:55;95707.50;;;16.02;89.28
3960;BME280;1994;48.640;8.894;2023-05-21T02:20:21;95718.53;;;15.94;89.68
3960;BME280;1994;48.640;8.894;2023-05-21T02:22:48;95711.22;;;15.96;89.68
3960;BME280;1994;48.640;8.894;2023-05-21T02:25:16;95706.53;;;15.93;89.67
3960;BME280;1994;48.640;8.894;2023-05-21T02:27:43;95703.97;;;15.88;89.31
3960;BME280;1994;48.640;8.894;2023-05-21T02:30:14;95710.81;;;15.79;90.46
3960;BME280;1994;48.640;8.894;2023-05-21T02:32:42;95704.63;;;15.75;90.13
3960;BME280;1994;48.640;8.894;2023-05-21T02:35:11;95707.81;;;15.67;90.74
3960;BME280;1994;48.640;8.894;2023-05-21T02:37:38;95705.88;;;15.49;92.15
3960;BME280;1994;48.640;8.894;2023-05-21T02:40:06;95705.31;;;15.52;91.83
3960;BME280;1994;48.640;8.894;2023-05-21T02:42:33;95706.34;;;15.56;91.10
3960;BME280;1994;48.640;8.894;2023-05-21T02:45:01;95712.09;;;15.58;91.17
3960;BME280;1994;48.640;8.894;2023-05-21T02:47:26;95703.69;;;15.61;91.25
3960;BME280;1994;48.640;8.894;2023-05-21T02:49:53;95695.91;;;15.56;91.79
3960;BME280;1994;48.640;8.894;2023-05-21T02:52:19;95701.88;;;15.61;91.30
3960;BME280;1994;48.640;8.894;2023-05-21T02:54:48;95707.44;;;15.50;91.79
3960;BME280;1994;48.640;8.894;2023-05-21T02:57:14;95698.78;;;15.54;91.88
3960;BME280;1994;48.640;8.894;2023-05-21T02:59:40;95700.22;;;15.42;92.48
3960;BME280;1994;48.640;8.894;2023-05-21T03:02:06;95705.38;;;15.47;92.07
3960;BME280;1994;48.640;8.894;2023-05-21T03:04:32;95695.44;;;15.49;92.04
3960;BME280;1994;48.640;8.894;2023-05-21T03:07:04;95693.41;;;15.41;92.75
3960;BME280;1994;48.640;8.894;2023-05-21T03:09:30;95697.69;;;15.27;93.00
3960;BME280;1994;48.640;8.894;2023-05-21T03:11:56;95696.34;;;15.29;93.38
3960;BME280;1994;48.640;8.894;2023-05-21T03:14:22;95694.50;;;15.30;93.10
3960;BME280;1994;48.640;8.894;2023-05-21T03:16:49;95690.84;;;15.36;92.37
3960;BME280;1994;48.640;8.894;2023-05-21T03:19:16;95689.31;;;15.25;92.82
3960;BME280;1994;48.640;8.894;2023-05-21T03:21:41;95691.41;;;15.33;92.33
3960;BME280;1994;48.640;8.894;2023-05-21T03:24:07;95689.88;;;15.22;92.51
3960;BME280;1994;48.640;8.894;2023-05-21T03:26:34;95686.22;;;15.23;92.67
3960;BME280;1994;48.640;8.894;2023-05-21T03:29:00;95688.94;;;15.08;93.19
3960;BME280;1994;48.640;8.894;2023-05-21T03:31:26;95686.81;;;15.15;92.66
3960;BME280;1994;48.640;8.894;2023-05-21T03:33:52;95693.53;;;15.21;92.13
3960;BME280;1994;48.640;8.894;2023-05-21T03:36:18;95698.22;;;15.24;92.21
3960;BME280;1994;48.640;8.894;2023-05-21T03:38:44;95691.44;;;15.23;92.29
3960;BME280;1994;48.640;8.894;2023-05-21T03:41:11;95691.44;;;15.23;92.08
3960;BME280;1994;48.640;8.894;2023-05-21T03:43:37;95683.34;;;15.24;92.17
3960;BME280;1994;48.640;8.894;2023-05-21T03:46:03;95690.91;;;15.26;92.00
3960;BME280;1994;48.640;8.894;2023-05-21T03:48:29;95688.84;;;15.18;91.98
3960;BME280;1994;48.640;8.894;2023-05-21T03:50:55;95690.94;;;15.21;92.05
3960;BME280;1994;48.640;8.894;2023-05-21T03:53:21;95690.41;;;15.19;92.25
3960;BME280;1994;48.640;8.894;2023-05-21T03:55:47;95696.66;;;15.23;92.36
3960;BME280;1994;48.640;8.894;2023-05-21T03:58:22;95696.13;;;15.26;92.19
3960;BME280;1994;48.640;8.894;2023-05-21T04:00:49;95702.09;;;15.26;92.49
3960;BME280;1994;48.640;8.894;2023-05-21T04:03:15;95697.91;;;15.30;92.07
3960;BME280;1994;48.640;8.894;2023-05-21T04:05:42;95694.50;;;15.35;92.06
3960;BME280;1994;48.640;8.894;2023-05-21T04:08:08;95700.50;;;15.35;92.00
3960;BME280;1994;48.640;8.894;2023-05-21T04:10:34;95701.31;;;15.36;92.07
3960;BME280;1994;48.640;8.894;2023-05-21T04:13:00;95700.78;;;15.34;91.75
3960;BME280;1994;48.640;8.894;2023-05-21T04:15:26;95699.72;;;15.35;92.79
3960;BME280;1994;48.640;8.894;2023-05-21T04:17:53;95704.41;;;15.38;92.47
3960;BME280;1994;48.640;8.894;2023-05-21T04:20:20;95708.53;;;15.44;93.53
3960;BME280;1994;48.640;8.894;2023-05-21T04:22:45;95713.75;;;15.44;93.04
3960;BME280;1994;48.640;8.894;2023-05-21T04:25:11;95707.22;;;15.46;92.82
3960;BME280;1994;48.640;8.894;2023-05-21T04:27:37;95719.47;;;15.46;93.21
3960;BME280;1994;48.640;8.894;2023-05-21T04:30:04;95716.31;;;15.49;93.46
3960;BME280;1994;48.640;8.894;2023-05-21T04:32:30;95719.94;;;15.53;93.10
3960;BME280;1994;48.640;8.894;2023-05-21T04:34:58;95717.34;;;15.53;93.76
3960;BME280;1994;48.640;8.894;2023-05-21T04:37:26;95724.06;;;15.59;93.18
3960;BME280;1994;48.640;8.894;2023-05-21T04:39:53;95720.91;;;15.62;92.67
3960;BME280;1994;48.640;8.894;2023-05-21T04:42:20;95728.19;;;15.65;92.51
3960;BME280;1994;48.640;8.894;2023-05-21T04:44:49;95727.69;;;15.63;92.54
3960;BME280;1994;48.640;8.894;2023-05-21T04:47:16;95732.44;;;15.56;92.33
3960;BME280;1994;48.640;8.894;2023-05-21T04:49:43;95734.88;;;15.47;92.75
3960;BME280;1994;48.640;8.894;2023-05-21T04:52:11;95740.44;;;15.31;93.66
3960;BME280;1994;48.640;8.894;2023-05-21T04:54:37;95738.88;;;15.35;93.42
3960;BME280;1994;48.640;8.894;2023-05-21T04:57:05;95736.75;;;15.42;92.90
3960;BME280;1994;48.640;8.894;2023-05-21T04:59:30;95735.66;;;15.48;92.04
3960;BME280;1994;48.640;8.894;2023-05-21T05:01:56;95735.13;;;15.46;92.21
3960;BME280;1994;48.640;8.894;2023-05-21T05:04:22;95736.78;;;15.32;93.41
3960;BME280;1994;48.640;8.894;2023-05-21T05:06:49;95737.28;;;15.39;93.05
3960;BME280;1994;48.640;8.894;2023-05-21T05:09:16;95735.16;;;15.41;92.83
3960;BME280;1994;48.640;8.894;2023-05-21T05:11:42;95736.56;;;15.28;94.26
3960;BME280;1994;48.640;8.894;2023-05-21T05:14:08;95735.72;;;15.38;93.87
3960;BME280;1994;48.640;8.894;2023-05-21T05:16:34;95742.44;;;15.49;93.61
3960;BME280;1994;48.640;8.894;2023-05-21T05:19:00;95741.81;;;15.57;93.21
3960;BME280;1994;48.640;8.894;2023-05-21T05:21:26;95743.91;;;15.60;93.29
3960;BME280;1994;48.640;8.894;2023-05-21T05:23:52;95747.00;;;15.62;93.55
3960;BME280;1994;48.640;8.894;2023-05-21T05:26:18;95744.59;;;15.70;92.97
3960;BME280;1994;48.640;8.894;2023-05-21T05:28:44;95748.00;;;15.71;92.79
3960;BME280;1994;48.640;8.894;2023-05-21T05:31:10;95741.63;;;15.82;92.80
3960;BME280;1994;48.640;8.894;2023-05-21T05:33:36;95744.28;;;15.77;92.53
3960;BME280;1994;48.640;8.894;2023-05-21T05:36:02;95737.50;;;15.76;93.07
3960;BME280;1994;48.640;8.894;2023-05-21T05:38:28;95744.28;;;15.77;92.92
3960;BME280;1994;48.640;8.894;2023-05-21T05:40:54;95738.53;;;15.80;93.02
3960;BME280;1994;48.640;8.894;2023-05-21T05:43:20;95736.41;;;15.82;92.99
3960;BME280;1994;48.640;8.894;2023-05-21T05:45:46;95738.88;;;15.97;92.70
3960;BME280;1994;48.640;8.894;2023-05-21T05:48:12;95737.56;;;15.99;92.78
3960;BME280;1994;48.640;8.894;2023-05-21T05:50:37;95740.94;;;16.00;92.69
3960;BME280;1994;48.640;8.894;2023-05-21T05:53:03;95740.84;;;16.10;92.34
3960;BME280;1994;48.640;8.894;2023-05-21T05:55:29;95741.69;;;16.29;92.05
3960;BME280;1994;48.640;8.894;2023-05-21T05:57:55;95735.69;;;16.28;91.77
3960;BME280;1994;48.640;8.894;2023-05-21T06:00:21;95741.69;;;16.29;91.91
3960;BME280;1994;48.640;8.894;2023-05-21T06:02:47;95736.13;;;16.35;91.33
3960;BME280;1994;48.640;8.894;2023-05-21T06:05:13;95747.19;;;16.56;90.58
3960;BME280;1994;48.640;8.894;2023-05-21T06:07:39;95750.19;;;16.68;90.10
3960;BME280;1994;48.640;8.894;2023-05-21T06:10:06;95745.50;;;16.65;89.93
3960;BME280;1994;48.640;8.894;2023-05-21T06:12:32;95743.81;;;16.74;89.73
3960;BME280;1994;48.640;8.894;2023-05-21T06:14:59;95741.09;;;16.84;89.31
3960;BME280;1994;48.640;8.894;2023-05-21T06:17:25;95746.88;;;16.81;89.28
3960;BME280;1994;48.640;8.894;2023-05-21T06:19:50;95748.00;;;16.93;88.83
3960;BME280;1994;48.640;8.894;2023-05-21T06:22:16;95744.06;;;17.14;88.00
3960;BME280;1994;48.640;8.894;2023-05-21T06:24:42;95748.94;;;17.21;87.77
3960;BME280;1994;48.640;8.894;2023-05-21T06:27:08;95752.47;;;17.30;87.30
3960;BME280;1994;48.640;8.894;2023-05-21T06:29:34;95751.31;;;17.41;87.92
3960;BME280;1994;48.640;8.894;2023-05-21T06:32:00;95749.94;;;17.62;86.53
3960;BME280;1994;48.640;8.894;2023-05-21T06:34:26;95745.88;;;17.69;85.35
3960;BME280;1994;48.640;8.894;2023-05-21T06:36:53;95751.16;;;17.83;84.77
3960;BME280;1994;48.640;8.894;2023-05-21T06:39:19;95748.31;;;17.98;83.89
3960;BME280;1994;48.640;8.894;2023-05-21T06:41:45;95752.38;;;18.04;83.54
3960;BME280;1994;48.640;8.894;2023-05-21T06:44:11;95757.63;;;18.04;82.89
3960;BME280;1994;48.640;8.894;2023-05-21T06:46:37;95750.84;;;18.03;83.23
3960;BME280;1994;48.640;8.894;2023-05-21T06:49:03;95749.03;;;17.85;82.95
3960;BME280;1994;48.640;8.894;2023-05-21T06:51:31;95751.97;;;17.97;82.63
3960;BME280;1994;48.640;8.894;2023-05-21T06:53:57;95752.59;;;18.21;82.07
3960;BME280;1994;48.640;8.894;2023-05-21T06:56:23;95755.84;;;18.45;81.10
3960;BME280;1994;48.640;8.894;2023-05-21T06:58:49;95754.78;;;18.59;79.87
3960;BME280;1994;48.640;8.894;2023-05-21T07:01:15;95754.19;;;18.76;78.44
3960;BME280;1994;48.640;8.894;2023-05-21T07:03:41;95753.59;;;18.79;77.70
3960;BME280;1994;48.640;8.894;2023-05-21T07:06:06;95748.34;;;18.79;79.34
3960;BME280;1994;48.640;8.894;2023-05-21T07:08:32;95750.13;;;18.70;77.88
3960;BME280;1994;48.640;8.894;2023-05-21T07:10:58;95755.56;;;18.60;77.43
3960;BME280;1994;48.640;8.894;2023-05-21T07:13:24;95757.72;;;18.58;78.73
3960;BME280;1994;48.640;8.894;2023-05-21T07:15:50;95758.47;;;18.72;79.16
3960;BME280;1994;48.640;8.894;2023-05-21T07:18:16;95752.00;;;19.05;76.68
3960;BME280;1994;48.640;8.894;2023-05-21T07:20:42;95745.97;;;19.31;75.83
3960;BME280;1994;48.640;8.894;2023-05-21T07:23:07;95751.41;;;19.35;74.83
3960;BME280;1994;48.640;8.894;2023-05-21T07:25:33;95746.09;;;19.48;74.79
3960;BME280;1994;48.640;8.894;2023-05-21T07:27:59;95745.75;;;19.85;72.50
3960;BME280;1994;48.640;8.894;2023-05-21T07:30:25;95744.84;;;19.68;73.09
3960;BME280;1994;48.640;8.894;2023-05-21T07:32:51;95749.38;;;19.54;73.30
3960;BME280;1994;48.640;8.894;2023-05-21T07:35:17;95748.13;;;19.73;72.88
3960;BME280;1994;48.640;8.894;2023-05-21T07:37:43;95753.44;;;19.60;72.65
3960;BME280;1994;48.640;8.894;2023-05-21T07:40:09;95752.97;;;19.80;72.16
3960;BME280;1994;48.640;8.894;2023-05-21T07:42:35;95745.22;;;20.05;71.96
3960;BME280;1994;48.640;8.894;2023-05-21T07:45:01;95745.38;;;20.31;70.83
3960;BME280;1994;48.640;8.894;2023-05-21T07:47:27;95744.66;;;20.08;70.05
3960;BME280;1994;48.640;8.894;2023-05-21T07:49:53;95737.28;;;19.97;70.41
3960;BME280;1994;48.640;8.894;2023-05-21T07:52:18;95741.00;;;19.96;71.04
3960;BME280;1994;48.640;8.894;2023-05-21T07:54:44;95738.16;;;19.84;70.65
3960;BME280;1994;48.640;8.894;2023-05-21T07:57:10;95741.50;;;19.76;71.51
3960;BME280;1994;48.640;8.894;2023-05-21T07:59:36;95739.47;;;19.73;71.43
3960;BME280;1994;48.640;8.894;2023-05-21T08:02:02;95738.38;;;19.96;70.82
3960;BME280;1994;48.640;8.894;2023-05-21T08:04:28;95743.53;;;20.31;71.18
3960;BME280;1994;48.640;8.894;2023-05-21T08:06:53;95746.19;;;20.40;68.85
3960;BME280;1994;48.640;8.894;2023-05-21T08:09:19;95743.03;;;20.60;68.83
3960;BME280;1994;48.640;8.894;2023-05-21T08:11:45;95745.78;;;20.94;67.76
3960;BME280;1994;48.640;8.894;2023-05-21T08:14:11;95739.94;;;21.14;66.53
3960;BME280;1994;48.640;8.894;2023-05-21T08:16:37;95736.38;;;21.44;66.27
3960;BME280;1994;48.640;8.894;2023-05-21T08:19:03;95742.88;;;21.72;64.84
3960;BME280;1994;48.640;8.894;2023-05-21T08:21:29;95734.66;;;21.65;63.55
3960;BME280;1994;48.640;8.894;2023-05-21T08:23:55;95734.81;;;21.77;64.52
3960;BME280;1994;48.640;8.894;2023-05-21T08:26:21;95742.69;;;21.94;62.77
3960;BME280;1994;48.640;8.894;2023-05-21T08:28:47;95747.59;;;22.21;63.79
3960;BME280;1994;48.640;8.894;2023-05-21T08:31:13;95728.84;;;22.60;61.64
3960;BME280;1994;48.640;8.894;2023-05-21T08:33:39;95739.97;;;22.74;60.34
3960;BME280;1994;48.640;8.894;2023-05-21T08:36:06;95737.66;;;22.93;59.82
3960;BME280;1994;48.640;8.894;2023-05-21T08:38:33;95737.22;;;22.91;60.20
3960;BME280;1994;48.640;8.894;2023-05-21T08:40:59;95743.88;;;22.97;58.96
3960;BME280;1994;48.640;8.894;2023-05-21T08:43:27;95741.22;;;22.97;58.75
3960;BME280;1994;48.640;8.894;2023-05-21T08:45:55;95755.53;;;23.25;60.45
3960;BME280;1994;48.640;8.894;2023-05-21T08:48:23;95744.75;;;23.30;58.00
3960;BME280;1994;48.640;8.894;2023-05-21T08:50:51;95749.16;;;23.26;58.03
3960;BME280;1994;48.640;8.894;2023-05-21T08:53:17;95746.53;;;23.26;58.10
3960;BME280;1994;48.640;8.894;2023-05-21T08:55:43;95741.72;;;23.60;56.96
3960;BME280;1994;48.640;8.894;2023-05-21T08:58:09;95738.50;;;23.55;57.97
3960;BME280;1994;48.640;8.894;2023-05-21T09:00:35;95745.66;;;23.95;57.16
3960;BME280;1994;48.640;8.894;2023-05-21T09:03:05;95745.97;;;24.38;56.12
3960;BME280;1994;48.640;8.894;2023-05-21T09:05:41;95742.59;;;23.85;55.89
3960;BME280;1994;48.640;8.894;2023-05-21T09:08:18;95749.84;;;23.35;57.97
3960;BME280;1994;48.640;8.894;2023-05-21T09:10:51;95746.94;;;23.69;57.20
3960;BME280;1994;48.640;8.894;2023-05-21T09:13:19;95746.13;;;23.56;58.08
3960;BME280;1994;48.640;8.894;2023-05-21T09:15:46;95744.75;;;24.36;56.54
3960;BME280;1994;48.640;8.894;2023-05-21T09:18:13;95744.03;;;24.71;54.25
3960;BME280;1994;48.640;8.894;2023-05-21T09:20:39;95744.81;;;24.84;54.09
3960;BME280;1994;48.640;8.894;2023-05-21T09:23:07;95751.41;;;25.02;54.28
3960;BME280;1994;48.640;8.894;2023-05-21T09:25:38;95755.44;;;24.27;54.78
3960;BME280;1994;48.640;8.894;2023-05-21T09:28:14;95754.25;;;25.09;53.35
3960;BME280;1994;48.640;8.894;2023-05-21T09:30:48;95750.50;;;25.34;51.83
3960;BME280;1994;48.640;8.894;2023-05-21T09:33:27;95750.84;;;25.72;51.63
3960;BME280;1994;48.640;8.894;2023-05-21T09:35:56;95749.06;;;25.64;51.69
3960;BME280;1994;48.640;8.894;2023-05-21T09:38:22;95742.72;;;26.08;52.02
3960;BME280;1994;48.640;8.894;2023-05-21T09:40:49;95743.91;;;25.95;51.45
3960;BME280;1994;48.640;8.894;2023-05-21T09:43:15;95747.91;;;26.32;49.08
3960;BME280;1994;48.640;8.894;2023-05-21T09:45:52;95743.97;;;26.26;49.97
3960;BME280;1994;48.640;8.894;2023-05-21T09:48:37;95733.50;;;26.33;49.58
3960;BME280;1994;48.640;8.894;2023-05-21T09:51:16;95745.78;;;26.53;49.99
3960;BME280;1994;48.640;8.894;2023-05-21T09:53:56;95739.44;;;26.88;48.95
3960;BME280;1994;48.640;8.894;2023-05-21T09:56:28;95734.09;;;27.04;48.85
3960;BME280;1994;48.640;8.894;2023-05-21T09:59:01;95737.78;;;26.84;47.16
3960;BME280;1994;48.640;8.894;2023-05-21T10:01:30;95740.56;;;26.72;49.01
3960;BME280;1994;48.640;8.894;2023-05-21T10:04:02;95743.44;;;26.98;48.77
3960;BME280;1994;48.640;8.894;2023-05-21T10:06:30;95741.34;;;27.07;46.73
3960;BME280;1994;48.640;8.894;2023-05-21T10:09:04;95746.44;;;26.96;47.02
3960;BME280;1994;48.640;8.894;2023-05-21T10:11:32;95739.31;;;26.85;46.62
3960;BME280;1994;48.640;8.894;2023-05-21T10:14:06;95740.34;;;26.96;47.70
3960;BME280;1994;48.640;8.894;2023-05-21T10:16:33;95735.25;;;27.22;46.96
3960;BME280;1994;48.640;8.894;2023-05-21T10:19:01;95736.94;;;26.49;50.57
3960;BME280;1994;48.640;8.894;2023-05-21T10:21:28;95741.69;;;27.21;48.95
3960;BME280;1994;48.640;8.894;2023-05-21T10:23:56;95737.41;;;27.01;45.98
3960;BME280;1994;48.640;8.894;2023-05-21T10:26:24;95732.28;;;26.46;48.49
3960;BME280;1994;48.640;8.894;2023-05-21T10:28:51;95731.88;;;26.44;49.55
3960;BME280;1994;48.640;8.894;2023-05-21T10:31:19;95737.78;;;26.99;48.58
3960;BME280;1994;48.640;8.894;2023-05-21T10:33:45;95734.16;;;27.42;46.86
3960;BME280;1994;48.640;8.894;2023-05-21T10:36:12;95732.56;;;27.56;46.81
3960;BME280;1994;48.640;8.894;2023-05-21T10:38:42;95728.44;;;27.59;46.59
3960;BME280;1994;48.640;8.894;2023-05-21T10:41:09;95734.59;;;27.44;45.10
3960;BME280;1994;48.640;8.894;2023-05-21T10:43:58;95732.13;;;27.35;45.71
3960;BME280;1994;48.640;8.894;2023-05-21T10:50:20;95724.09;;;26.82;46.50
3960;BME280;1994;48.640;8.894;2023-05-21T10:53:09;95731.50;;;27.42;45.69
3960;BME280;1994;48.640;8.894;2023-05-21T10:55:57;95722.97;;;27.71;46.70
3960;BME280;1994;48.640;8.894;2023-05-21T11:01:02;95726.84;;;28.15;46.41
3960;BME280;1994;48.640;8.894;2023-05-21T11:03:29;95722.13;;;28.46;45.34
3960;BME280;1994;48.640;8.894;2023-05-21T11:05:56;95728.38;;;27.93;45.91
3960;BME280;1994;48.640;8.894;2023-05-21T11:08:27;95716.53;;;27.91;44.63
3960;BME280;1994;48.640;8.894;2023-05-21T11:10:57;95720.56;;;28.04;45.36
3960;BME280;1994;48.640;8.894;2023-05-21T11:13:28;95723.28;;;27.85;44.07
3960;BME280;1994;48.640;8.894;2023-05-21T11:21:14;95699.38;;;27.16;46.05
3960;BME280;1994;48.640;8.894;2023-05-21T11:26:17;95725.56;;;26.79;45.13
3960;BME280;1994;48.640;8.894;2023-05-21T11:28:44;95729.81;;;26.99;44.99
3960;BME280;1994;48.640;8.894;2023-05-21T11:31:26;95727.19;;;27.53;43.61
3960;BME280;1994;48.640;8.894;2023-05-21T11:36:45;95727.06;;;26.18;44.69
3960;BME280;1994;48.640;8.894;2023-05-21T11:39:14;95731.28;;;26.35;44.50
3960;BME280;1994;48.640;8.894;2023-05-21T11:42:00;95725.13;;;26.31;43.90
3960;BME280;1994;48.640;8.894;2023-05-21T11:44:38;95727.16;;;26.22;46.15
3960;BME280;1994;48.640;8.894;2023-05-21T11:47:06;95726.72;;;26.51;45.38
3960;BME280;1994;48.640;8.894;2023-05-21T11:49:33;95735.47;;;26.98;44.79
3960;BME280;1994;48.640;8.894;2023-05-21T11:51:59;95736.63;;;26.66;45.03
3960;BME280;1994;48.640;8.894;2023-05-21T11:54:27;95733.88;;;27.28;43.83
3960;BME280;1994;48.640;8.894;2023-05-21T11:56:59;95735.50;;;27.51;43.89
3960;BME280;1994;48.640;8.894;2023-05-21T11:59:27;95733.72;;;27.21;44.19
3960;BME280;1994;48.640;8.894;2023-05-21T12:01:54;95724.66;;;27.41;41.84
3960;BME280;1994;48.640;8.894;2023-05-21T12:04:20;95729.19;;;27.06;44.16
3960;BME280;1994;48.640;8.894;2023-05-21T12:06:46;95735.00;;;27.27;46.00
3960;BME280;1994;48.640;8.894;2023-05-21T12:09:12;95735.69;;;27.24;44.65
3960;BME280;1994;48.640;8.894;2023-05-21T12:11:42;95739.31;;;26.85;46.40
3960;BME280;1994;48.640;8.894;2023-05-21T12:14:11;95740.97;;;26.89;45.87
3960;BME280;1994;48.640;8.894;2023-05-21T12:16:38;95742.78;;;26.70;44.57
3960;BME280;1994;48.640;8.894;2023-05-21T12:19:05;95742.09;;;26.73;46.07
3960;BME280;1994;48.640;8.894;2023-05-21T12:21:32;95746.16;;;27.17;45.05
3960;BME280;1994;48.640;8.894;2023-05-21T12:23:58;95742.00;;;26.85;45.84
3960;BME280;1994;48.640;8.894;2023-05-21T12:26:25;95743.28;;;26.91;46.68
3960;BME280;1994;48.640;8.894;2023-05-21T12:28:55;95743.94;;;27.19;45.48
3960;BME280;1994;48.640;8.894;2023-05-21T12:31:22;95741.56;;;27.33;45.06
3960;BME280;1994;48.640;8.894;2023-05-21T12:33:51;95734.69;;;27.85;44.30
3960;BME280;1994;48.640;8.894;2023-05-21T12:36:29;95741.59;;;27.52;44.50
3960;BME280;1994;48.640;8.894;2023-05-21T12:38:57;95745.38;;;27.51;45.15
3960;BME280;1994;48.640;8.894;2023-05-21T12:41:22;95746.47;;;27.31;45.04
3960;BME280;1994;48.640;8.894;2023-05-21T12:43:50;95751.59;;;27.58;44.57
3960;BME280;1994;48.640;8.894;2023-05-21T12:46:16;95746.47;;;26.65;44.27
3960;BME280;1994;48.640;8.894;2023-05-21T12:48:52;95746.72;;;26.76;46.36
3960;BME280;1994;48.640;8.894;2023-05-21T12:51:19;95747.53;;;27.11;44.40
3960;BME280;1994;48.640;8.894;2023-05-21T12:53:45;95750.16;;;26.61;44.99
3960;BME280;1994;48.640;8.894;2023-05-21T12:56:13;95748.91;;;26.12;45.51
3960;BME280;1994;48.640;8.894;2023-05-21T12:58:41;95750.50;;;26.75;44.61
3960;BME280;1994;48.640;8.894;2023-05-21T13:01:08;95749.56;;;26.09;44.45
3960;BME280;1994;48.640;8.894;2023-05-21T13:03:40;95753.09;;;26.13;44.70
3960;BME280;1994;48.640;8.894;2023-05-21T13:06:07;95749.75;;;26.16;44.52
3960;BME280;1994;48.640;8.894;2023-05-21T13:08:34;95754.38;;;26.19;44.93
3960;BME280;1994;48.640;8.894;2023-05-21T13:11:03;95748.97;;;26.58;45.01
3960;BME280;1994;48.640;8.894;2023-05-21T13:13:29;95749.19;;;27.00;44.31
3960;BME280;1994;48.640;8.894;2023-05-21T13:15:55;95748.22;;;27.08;42.42
3960;BME280;1994;48.640;8.894;2023-05-21T13:18:21;95751.56;;;27.20;43.70
3960;BME280;1994;48.640;8.894;2023-05-21T13:20:47;95746.72;;;26.76;43.02
3960;BME280;1994;48.640;8.894;2023-05-21T13:23:14;95754.94;;;26.86;44.10
3960;BME280;1994;48.640;8.894;2023-05-21T13:25:43;95746.59;;;27.03;43.82
3960;BME280;1994;48.640;8.894;2023-05-21T13:28:09;95751.84;;;27.00;42.52
3960;BME280;1994;48.640;8.894;2023-05-21T13:30:37;95749.13;;;26.81;43.73
3960;BME280;1994;48.640;8.894;2023-05-21T13:33:05;95748.56;;;27.22;43.00
3960;BME280;1994;48.640;8.894;2023-05-21T13:35:31;95748.72;;;27.29;43.42
3960;BME280;1994;48.640;8.894;2023-05-21T13:37:57;95750.69;;;27.16;43.79
3960;BME280;1994;48.640;8.894;2023-05-21T13:40:23;95756.34;;;27.30;43.14
3960;BME280;1994;48.640;8.894;2023-05-21T13:42:49;95759.41;;;26.82;43.39
3960;BME280;1994;48.640;8.894;2023-05-21T13:45:17;95749.75;;;26.16;44.75